sensor_id;sensor_type;location;lat;lon;timestamp;P1;durP1;ratioP1;P2;durP2;ratioP2
8714;SDS011;4394;51.208;8.904;2023-05-07T00:01:26;8.00;;;4.93;;
8714;SDS011;4394;51.208;8.904;2023-05-07T00:04:14;5.33;;;4.43;;
8714;SDS011;4394;51.208;8.904;2023-05-07T00:07:02;6.80;;;5.53;;
8714;SDS011;4394;51.208;8.904;2023-05-07T00:09:50;5.93;;;5.30;;
8714;SDS011;4394;51.208;8.904;2023-05-07T00:12:40;8.50;;;5.67;;
8714;SDS011;4394;51.208;8.904;2023-05-07T00:15:28;8.60;;;5.60;;
8714;SDS011;4394;51.208;8.904;2023-05-07T00:18:16;7.17;;;6.47;;
8714;SDS011;4394;51.208;8.904;2023-05-07T00:21:07;9.13;;;6.50;;
8714;SDS011;4394;51.208;8.904;2023-05-07T00:23:55;8.97;;;7.23;;
8714;SDS011;4394;51.208;8.904;2023-05-07T00:26:43;11.63;;;8.07;;
8714;SDS011;4394;51.208;8.904;2023-05-07T00:29:32;11.53;;;8.13;;
8714;SDS011;4394;51.208;8.904;2023-05-07T00:32:20;10.07;;;8.60;;
8714;SDS011;4394;51.208;8.904;2023-05-07T00:35:09;12.03;;;9.57;;
8714;SDS011;4394;51.208;8.904;2023-05-07T00:37:57;10.80;;;9.43;;
8714;SDS011;4394;51.208;8.904;2023-05-07T00:40:45;12.03;;;10.30;;
8714;SDS011;4394;51.208;8.904;2023-05-07T00:43:33;12.57;;;10.53;;
8714;SDS011;4394;51.208;8.904;2023-05-07T00:46:23;14.60;;;10.40;;
8714;SDS011;4394;51.208;8.904;2023-05-07T00:49:12;12.67;;;10.00;;
8714;SDS011;4394;51.208;8.904;2023-05-07T00:52:00;11.83;;;10.30;;
8714;SDS011;4394;51.208;8.904;2023-05-07T00:54:48;11.50;;;9.97;;
8714;SDS011;4394;51.208;8.904;2023-05-07T00:57:37;12.77;;;11.03;;
8714;SDS011;4394;51.208;8.904;2023-05-07T01:00:26;15.53;;;12.20;;
8714;SDS011;4394;51.208;8.904;2023-05-07T01:03:16;15.57;;;12.17;;
8714;SDS011;4394;51.208;8.904;2023-05-07T01:06:04;14.47;;;12.33;;
8714;SDS011;4394;51.208;8.904;2023-05-07T01:08:55;15.93;;;12.97;;
8714;SDS011;4394;51.208;8.904;2023-05-07T01:11:43;16.43;;;13.27;;
8714;SDS011;4394;51.208;8.904;2023-05-07T01:14:32;15.93;;;13.57;;
8714;SDS011;4394;51.208;8.904;2023-05-07T01:17:20;16.53;;;13.43;;
8714;SDS011;4394;51.208;8.904;2023-05-07T01:20:10;15.73;;;13.20;;
8714;SDS011;4394;51.208;8.904;2023-05-07T01:23:00;17.03;;;14.50;;
8714;SDS011;4394;51.208;8.904;2023-05-07T01:25:52;15.87;;;14.17;;
8714;SDS011;4394;51.208;8.904;2023-05-07T01:28:40;17.17;;;14.60;;
8714;SDS011;4394;51.208;8.904;2023-05-07T01:31:28;19.83;;;16.17;;
8714;SDS011;4394;51.208;8.904;2023-05-07T01:34:17;19.33;;;16.67;;
8714;SDS011;4394;51.208;8.904;2023-05-07T01:37:08;18.03;;;15.77;;
8714;SDS011;4394;51.208;8.904;2023-05-07T01:39:58;18.80;;;16.07;;
8714;SDS011;4394;51.208;8.904;2023-05-07T01:42:46;20.20;;;16.33;;
8714;SDS011;4394;51.208;8.904;2023-05-07T01:45:35;21.63;;;17.07;;
8714;SDS011;4394;51.208;8.904;2023-05-07T01:48:23;20.73;;;16.47;;
8714;SDS011;4394;51.208;8.904;2023-05-07T01:51:12;21.37;;;16.33;;
8714;SDS011;4394;51.208;8.904;2023-05-07T01:54:00;21.93;;;17.17;;
8714;SDS011;4394;51.208;8.904;2023-05-07T01:56:49;22.47;;;16.83;;
8714;SDS011;4394;51.208;8.904;2023-05-07T01:59:37;22.67;;;17.00;;
8714;SDS011;4394;51.208;8.904;2023-05-07T02:02:25;21.30;;;17.63;;
8714;SDS011;4394;51.208;8.904;2023-05-07T02:05:13;21.20;;;17.57;;
8714;SDS011;4394;51.208;8.904;2023-05-07T02:08:02;20.77;;;17.53;;
8714;SDS011;4394;51.208;8.904;2023-05-07T02:10:50;20.33;;;16.63;;
8714;SDS011;4394;51.208;8.904;2023-05-07T02:13:39;22.43;;;17.33;;
8714;SDS011;4394;51.208;8.904;2023-05-07T02:16:27;21.63;;;16.60;;
8714;SDS011;4394;51.208;8.904;2023-05-07T02:19:15;21.57;;;16.70;;
8714;SDS011;4394;51.208;8.904;2023-05-07T02:22:04;21.30;;;17.03;;
8714;SDS011;4394;51.208;8.904;2023-05-07T02:24:52;20.27;;;16.50;;
8714;SDS011;4394;51.208;8.904;2023-05-07T02:27:40;23.57;;;18.00;;
8714;SDS011;4394;51.208;8.904;2023-05-07T02:30:30;20.90;;;18.00;;
8714;SDS011;4394;51.208;8.904;2023-05-07T02:33:19;22.97;;;18.87;;
8714;SDS011;4394;51.208;8.904;2023-05-07T02:36:07;23.97;;;17.53;;
8714;SDS011;4394;51.208;8.904;2023-05-07T02:38:56;21.40;;;17.47;;
8714;SDS011;4394;51.208;8.904;2023-05-07T02:41:44;20.77;;;16.60;;
8714;SDS011;4394;51.208;8.904;2023-05-07T02:44:32;20.87;;;17.50;;
8714;SDS011;4394;51.208;8.904;2023-05-07T02:47:23;24.57;;;18.17;;
8714;SDS011;4394;51.208;8.904;2023-05-07T02:50:13;23.33;;;18.33;;
8714;SDS011;4394;51.208;8.904;2023-05-07T02:53:01;24.00;;;18.40;;
8714;SDS011;4394;51.208;8.904;2023-05-07T02:55:49;23.53;;;18.77;;
8714;SDS011;4394;51.208;8.904;2023-05-07T02:58:37;23.37;;;17.97;;
8714;SDS011;4394;51.208;8.904;2023-05-07T03:01:26;23.10;;;17.53;;
8714;SDS011;4394;51.208;8.904;2023-05-07T03:04:15;23.37;;;18.83;;
8714;SDS011;4394;51.208;8.904;2023-05-07T03:07:03;23.53;;;18.50;;
8714;SDS011;4394;51.208;8.904;2023-05-07T03:09:51;22.80;;;18.27;;
8714;SDS011;4394;51.208;8.904;2023-05-07T03:12:39;25.37;;;19.00;;
8714;SDS011;4394;51.208;8.904;2023-05-07T03:15:28;23.37;;;18.30;;
8714;SDS011;4394;51.208;8.904;2023-05-07T03:18:16;25.50;;;19.17;;
8714;SDS011;4394;51.208;8.904;2023-05-07T03:21:05;28.73;;;20.50;;
8714;SDS011;4394;51.208;8.904;2023-05-07T03:23:53;27.37;;;20.33;;
8714;SDS011;4394;51.208;8.904;2023-05-07T03:26:41;25.23;;;18.87;;
8714;SDS011;4394;51.208;8.904;2023-05-07T03:29:29;27.17;;;20.37;;
8714;SDS011;4394;51.208;8.904;2023-05-07T03:32:17;27.57;;;19.77;;
8714;SDS011;4394;51.208;8.904;2023-05-07T03:35:06;25.80;;;19.17;;
8714;SDS011;4394;51.208;8.904;2023-05-07T03:37:55;24.37;;;18.40;;
8714;SDS011;4394;51.208;8.904;2023-05-07T03:40:43;24.47;;;18.93;;
8714;SDS011;4394;51.208;8.904;2023-05-07T03:43:31;24.30;;;19.67;;
8714;SDS011;4394;51.208;8.904;2023-05-07T03:46:19;27.70;;;20.47;;
8714;SDS011;4394;51.208;8.904;2023-05-07T03:49:07;26.70;;;20.30;;
8714;SDS011;4394;51.208;8.904;2023-05-07T03:51:55;28.37;;;20.77;;
8714;SDS011;4394;51.208;8.904;2023-05-07T03:54:45;28.37;;;20.33;;
8714;SDS011;4394;51.208;8.904;2023-05-07T03:57:33;30.70;;;22.20;;
8714;SDS011;4394;51.208;8.904;2023-05-07T04:00:21;30.67;;;21.00;;
8714;SDS011;4394;51.208;8.904;2023-05-07T04:03:09;28.93;;;21.17;;
8714;SDS011;4394;51.208;8.904;2023-05-07T04:05:57;30.40;;;21.23;;
8714;SDS011;4394;51.208;8.904;2023-05-07T04:08:45;29.10;;;22.07;;
8714;SDS011;4394;51.208;8.904;2023-05-07T04:11:35;29.07;;;21.03;;
8714;SDS011;4394;51.208;8.904;2023-05-07T04:14:23;29.87;;;21.87;;
8714;SDS011;4394;51.208;8.904;2023-05-07T04:17:11;30.33;;;21.00;;
8714;SDS011;4394;51.208;8.904;2023-05-07T04:19:59;30.70;;;22.03;;
8714;SDS011;4394;51.208;8.904;2023-05-07T04:22:47;32.60;;;22.13;;
8714;SDS011;4394;51.208;8.904;2023-05-07T04:25:36;27.73;;;20.50;;
8714;SDS011;4394;51.208;8.904;2023-05-07T04:28:26;29.10;;;21.33;;
8714;SDS011;4394;51.208;8.904;2023-05-07T04:31:14;28.20;;;21.43;;
8714;SDS011;4394;51.208;8.904;2023-05-07T04:34:02;25.40;;;19.47;;
8714;SDS011;4394;51.208;8.904;2023-05-07T04:36:50;28.97;;;20.33;;
8714;SDS011;4394;51.208;8.904;2023-05-07T04:39:39;27.43;;;21.07;;
8714;SDS011;4394;51.208;8.904;2023-05-07T04:42:27;29.47;;;21.73;;
8714;SDS011;4394;51.208;8.904;2023-05-07T04:45:16;28.73;;;22.50;;
8714;SDS011;4394;51.208;8.904;2023-05-07T04:48:04;28.73;;;21.07;;
8714;SDS011;4394;51.208;8.904;2023-05-07T04:50:53;31.40;;;22.13;;
8714;SDS011;4394;51.208;8.904;2023-05-07T04:53:41;28.30;;;21.87;;
8714;SDS011;4394;51.208;8.904;2023-05-07T04:56:29;31.33;;;22.27;;
8714;SDS011;4394;51.208;8.904;2023-05-07T04:59:17;30.60;;;20.57;;
8714;SDS011;4394;51.208;8.904;2023-05-07T05:02:06;30.63;;;21.90;;
8714;SDS011;4394;51.208;8.904;2023-05-07T05:04:54;27.20;;;21.20;;
8714;SDS011;4394;51.208;8.904;2023-05-07T05:07:42;31.07;;;21.57;;
8714;SDS011;4394;51.208;8.904;2023-05-07T05:10:31;31.07;;;22.77;;
8714;SDS011;4394;51.208;8.904;2023-05-07T05:13:19;30.20;;;21.90;;
8714;SDS011;4394;51.208;8.904;2023-05-07T05:16:07;32.10;;;20.57;;
8714;SDS011;4394;51.208;8.904;2023-05-07T05:18:57;30.60;;;21.43;;
8714;SDS011;4394;51.208;8.904;2023-05-07T05:21:45;32.97;;;22.23;;
8714;SDS011;4394;51.208;8.904;2023-05-07T05:24:33;28.80;;;21.27;;
8714;SDS011;4394;51.208;8.904;2023-05-07T05:27:21;31.47;;;23.03;;
8714;SDS011;4394;51.208;8.904;2023-05-07T05:30:09;29.60;;;22.07;;
8714;SDS011;4394;51.208;8.904;2023-05-07T05:32:59;30.97;;;22.10;;
8714;SDS011;4394;51.208;8.904;2023-05-07T05:35:49;29.17;;;20.50;;
8714;SDS011;4394;51.208;8.904;2023-05-07T05:38:37;31.70;;;22.47;;
8714;SDS011;4394;51.208;8.904;2023-05-07T05:41:25;30.47;;;21.57;;
8714;SDS011;4394;51.208;8.904;2023-05-07T05:44:13;29.63;;;21.47;;
8714;SDS011;4394;51.208;8.904;2023-05-07T05:47:01;27.50;;;20.10;;
8714;SDS011;4394;51.208;8.904;2023-05-07T05:49:50;33.50;;;22.40;;
8714;SDS011;4394;51.208;8.904;2023-05-07T05:52:39;30.27;;;21.77;;
8714;SDS011;4394;51.208;8.904;2023-05-07T05:55:28;30.77;;;22.27;;
8714;SDS011;4394;51.208;8.904;2023-05-07T05:58:16;30.07;;;21.93;;
8714;SDS011;4394;51.208;8.904;2023-05-07T06:01:04;30.87;;;21.90;;
8714;SDS011;4394;51.208;8.904;2023-05-07T06:03:52;31.50;;;21.43;;
8714;SDS011;4394;51.208;8.904;2023-05-07T06:06:40;29.10;;;20.43;;
8714;SDS011;4394;51.208;8.904;2023-05-07T06:09:30;32.10;;;23.13;;
8714;SDS011;4394;51.208;8.904;2023-05-07T06:12:17;27.80;;;20.50;;
8714;SDS011;4394;51.208;8.904;2023-05-07T06:15:06;28.70;;;21.10;;
8714;SDS011;4394;51.208;8.904;2023-05-07T06:17:54;28.97;;;19.90;;
8714;SDS011;4394;51.208;8.904;2023-05-07T06:20:43;26.67;;;20.03;;
8714;SDS011;4394;51.208;8.904;2023-05-07T06:23:31;27.93;;;20.63;;
8714;SDS011;4394;51.208;8.904;2023-05-07T06:26:21;29.37;;;19.90;;
8714;SDS011;4394;51.208;8.904;2023-05-07T06:29:09;28.90;;;20.47;;
8714;SDS011;4394;51.208;8.904;2023-05-07T06:32:05;29.57;;;20.13;;
8714;SDS011;4394;51.208;8.904;2023-05-07T06:34:54;29.43;;;21.33;;
8714;SDS011;4394;51.208;8.904;2023-05-07T06:37:42;29.37;;;21.07;;
8714;SDS011;4394;51.208;8.904;2023-05-07T06:40:30;30.70;;;21.27;;
8714;SDS011;4394;51.208;8.904;2023-05-07T06:43:19;28.87;;;20.13;;
8714;SDS011;4394;51.208;8.904;2023-05-07T06:46:07;29.17;;;21.47;;
8714;SDS011;4394;51.208;8.904;2023-05-07T06:48:55;28.47;;;20.90;;
8714;SDS011;4394;51.208;8.904;2023-05-07T06:51:43;27.50;;;20.20;;
8714;SDS011;4394;51.208;8.904;2023-05-07T06:54:31;29.47;;;20.17;;
8714;SDS011;4394;51.208;8.904;2023-05-07T06:57:19;26.57;;;19.30;;
8714;SDS011;4394;51.208;8.904;2023-05-07T07:00:09;26.80;;;18.77;;
8714;SDS011;4394;51.208;8.904;2023-05-07T07:02:58;27.60;;;20.50;;
8714;SDS011;4394;51.208;8.904;2023-05-07T07:05:47;26.27;;;18.87;;
8714;SDS011;4394;51.208;8.904;2023-05-07T07:08:34;26.67;;;19.23;;
8714;SDS011;4394;51.208;8.904;2023-05-07T07:11:25;27.40;;;19.03;;
8714;SDS011;4394;51.208;8.904;2023-05-07T07:14:13;28.50;;;19.07;;
8714;SDS011;4394;51.208;8.904;2023-05-07T07:17:02;29.03;;;19.67;;
8714;SDS011;4394;51.208;8.904;2023-05-07T07:19:51;27.37;;;19.53;;
8714;SDS011;4394;51.208;8.904;2023-05-07T07:22:39;27.70;;;19.70;;
8714;SDS011;4394;51.208;8.904;2023-05-07T07:25:27;27.83;;;18.97;;
8714;SDS011;4394;51.208;8.904;2023-05-07T07:28:15;27.83;;;18.93;;
8714;SDS011;4394;51.208;8.904;2023-05-07T07:31:04;25.03;;;17.10;;
8714;SDS011;4394;51.208;8.904;2023-05-07T07:33:53;26.40;;;17.87;;
8714;SDS011;4394;51.208;8.904;2023-05-07T07:36:41;26.93;;;18.70;;
8714;SDS011;4394;51.208;8.904;2023-05-07T07:39:32;25.23;;;18.47;;
8714;SDS011;4394;51.208;8.904;2023-05-07T07:42:20;25.07;;;17.63;;
8714;SDS011;4394;51.208;8.904;2023-05-07T07:45:10;26.10;;;17.33;;
8714;SDS011;4394;51.208;8.904;2023-05-07T07:47:58;22.77;;;16.87;;
8714;SDS011;4394;51.208;8.904;2023-05-07T07:50:49;23.73;;;16.77;;
8714;SDS011;4394;51.208;8.904;2023-05-07T07:53:37;22.93;;;16.60;;
8714;SDS011;4394;51.208;8.904;2023-05-07T07:56:27;24.33;;;17.03;;
8714;SDS011;4394;51.208;8.904;2023-05-07T07:59:15;25.87;;;18.47;;
8714;SDS011;4394;51.208;8.904;2023-05-07T08:02:05;24.13;;;16.93;;
8714;SDS011;4394;51.208;8.904;2023-05-07T08:04:53;23.83;;;17.10;;
8714;SDS011;4394;51.208;8.904;2023-05-07T08:07:43;25.33;;;16.90;;
8714;SDS011;4394;51.208;8.904;2023-05-07T08:10:32;25.10;;;16.33;;
8714;SDS011;4394;51.208;8.904;2023-05-07T08:13:24;26.83;;;17.67;;
8714;SDS011;4394;51.208;8.904;2023-05-07T08:16:12;24.33;;;16.30;;
8714;SDS011;4394;51.208;8.904;2023-05-07T08:19:01;25.40;;;16.93;;
8714;SDS011;4394;51.208;8.904;2023-05-07T08:21:49;24.43;;;16.30;;
8714;SDS011;4394;51.208;8.904;2023-05-07T08:24:38;22.97;;;16.00;;
8714;SDS011;4394;51.208;8.904;2023-05-07T08:27:27;23.07;;;16.40;;
8714;SDS011;4394;51.208;8.904;2023-05-07T08:30:15;23.07;;;16.37;;
8714;SDS011;4394;51.208;8.904;2023-05-07T08:33:03;23.53;;;16.57;;
8714;SDS011;4394;51.208;8.904;2023-05-07T08:35:51;23.13;;;16.40;;
8714;SDS011;4394;51.208;8.904;2023-05-07T08:38:39;22.63;;;15.80;;
8714;SDS011;4394;51.208;8.904;2023-05-07T08:41:30;23.10;;;15.93;;
8714;SDS011;4394;51.208;8.904;2023-05-07T08:44:19;22.77;;;16.00;;
8714;SDS011;4394;51.208;8.904;2023-05-07T08:47:10;22.23;;;16.13;;
8714;SDS011;4394;51.208;8.904;2023-05-07T08:49:58;23.20;;;16.03;;
8714;SDS011;4394;51.208;8.904;2023-05-07T08:52:46;22.30;;;15.63;;
8714;SDS011;4394;51.208;8.904;2023-05-07T08:55:34;22.23;;;15.67;;
8714;SDS011;4394;51.208;8.904;2023-05-07T08:58:25;24.03;;;16.40;;
8714;SDS011;4394;51.208;8.904;2023-05-07T09:01:13;25.67;;;17.23;;
8714;SDS011;4394;51.208;8.904;2023-05-07T09:04:03;22.70;;;16.17;;
8714;SDS011;4394;51.208;8.904;2023-05-07T09:06:52;23.03;;;15.83;;
8714;SDS011;4394;51.208;8.904;2023-05-07T09:09:40;20.73;;;14.93;;
8714;SDS011;4394;51.208;8.904;2023-05-07T09:12:28;22.70;;;15.03;;
8714;SDS011;4394;51.208;8.904;2023-05-07T09:15:17;21.47;;;14.70;;
8714;SDS011;4394;51.208;8.904;2023-05-07T09:18:05;21.17;;;15.27;;
8714;SDS011;4394;51.208;8.904;2023-05-07T09:20:54;19.03;;;14.17;;
8714;SDS011;4394;51.208;8.904;2023-05-07T09:23:42;21.20;;;14.13;;
8714;SDS011;4394;51.208;8.904;2023-05-07T09:26:31;18.13;;;13.80;;
8714;SDS011;4394;51.208;8.904;2023-05-07T09:29:20;19.53;;;14.33;;
8714;SDS011;4394;51.208;8.904;2023-05-07T09:32:09;20.37;;;14.67;;
8714;SDS011;4394;51.208;8.904;2023-05-07T09:34:58;20.83;;;15.23;;
8714;SDS011;4394;51.208;8.904;2023-05-07T09:37:46;20.60;;;14.77;;
8714;SDS011;4394;51.208;8.904;2023-05-07T09:40:34;20.17;;;14.30;;
8714;SDS011;4394;51.208;8.904;2023-05-07T09:43:23;18.60;;;14.53;;
8714;SDS011;4394;51.208;8.904;2023-05-07T09:46:11;18.30;;;13.43;;
8714;SDS011;4394;51.208;8.904;2023-05-07T09:49:02;20.50;;;13.30;;
8714;SDS011;4394;51.208;8.904;2023-05-07T09:51:53;20.97;;;13.73;;
8714;SDS011;4394;51.208;8.904;2023-05-07T09:54:41;18.40;;;13.60;;
8714;SDS011;4394;51.208;8.904;2023-05-07T09:57:32;16.93;;;13.43;;
8714;SDS011;4394;51.208;8.904;2023-05-07T10:00:22;18.07;;;13.47;;
8714;SDS011;4394;51.208;8.904;2023-05-07T10:03:10;17.00;;;12.63;;
8714;SDS011;4394;51.208;8.904;2023-05-07T10:06:00;18.30;;;12.93;;
8714;SDS011;4394;51.208;8.904;2023-05-07T10:08:49;18.33;;;13.63;;
8714;SDS011;4394;51.208;8.904;2023-05-07T10:11:38;16.00;;;12.60;;
8714;SDS011;4394;51.208;8.904;2023-05-07T10:14:27;17.00;;;13.00;;
8714;SDS011;4394;51.208;8.904;2023-05-07T10:17:16;17.90;;;13.77;;
8714;SDS011;4394;51.208;8.904;2023-05-07T10:20:05;17.80;;;13.30;;
8714;SDS011;4394;51.208;8.904;2023-05-07T10:22:55;15.40;;;12.00;;
8714;SDS011;4394;51.208;8.904;2023-05-07T10:25:45;16.10;;;12.17;;
8714;SDS011;4394;51.208;8.904;2023-05-07T10:28:36;15.60;;;11.63;;
8714;SDS011;4394;51.208;8.904;2023-05-07T10:31:32;14.77;;;12.30;;
8714;SDS011;4394;51.208;8.904;2023-05-07T10:34:39;14.73;;;11.60;;
8714;SDS011;4394;51.208;8.904;2023-05-07T10:37:30;11.93;;;9.87;;
8714;SDS011;4394;51.208;8.904;2023-05-07T10:40:21;14.40;;;11.70;;
8714;SDS011;4394;51.208;8.904;2023-05-07T10:43:09;13.07;;;10.97;;
8714;SDS011;4394;51.208;8.904;2023-05-07T10:46:09;13.77;;;10.93;;
8714;SDS011;4394;51.208;8.904;2023-05-07T10:49:08;12.80;;;10.70;;
8714;SDS011;4394;51.208;8.904;2023-05-07T10:52:11;12.37;;;10.30;;
8714;SDS011;4394;51.208;8.904;2023-05-07T10:58:23;12.30;;;10.60;;
8714;SDS011;4394;51.208;8.904;2023-05-07T11:01:28;11.90;;;10.03;;
8714;SDS011;4394;51.208;8.904;2023-05-07T11:04:37;11.83;;;9.57;;
8714;SDS011;4394;51.208;8.904;2023-05-07T11:07:27;12.00;;;9.67;;
8714;SDS011;4394;51.208;8.904;2023-05-07T11:10:16;10.70;;;9.53;;
8714;SDS011;4394;51.208;8.904;2023-05-07T11:13:06;12.90;;;10.67;;
8714;SDS011;4394;51.208;8.904;2023-05-07T11:15:54;13.13;;;10.37;;
8714;SDS011;4394;51.208;8.904;2023-05-07T11:18:45;12.60;;;9.90;;
8714;SDS011;4394;51.208;8.904;2023-05-07T11:21:35;12.47;;;9.67;;
8714;SDS011;4394;51.208;8.904;2023-05-07T11:24:24;12.33;;;9.60;;
8714;SDS011;4394;51.208;8.904;2023-05-07T11:27:13;11.30;;;10.07;;
8714;SDS011;4394;51.208;8.904;2023-05-07T11:30:03;11.67;;;9.63;;
8714;SDS011;4394;51.208;8.904;2023-05-07T11:32:51;10.93;;;8.87;;
8714;SDS011;4394;51.208;8.904;2023-05-07T11:35:39;11.00;;;8.70;;
8714;SDS011;4394;51.208;8.904;2023-05-07T11:38:29;11.30;;;9.00;;
8714;SDS011;4394;51.208;8.904;2023-05-07T11:41:21;10.03;;;8.97;;
8714;SDS011;4394;51.208;8.904;2023-05-07T11:44:09;11.17;;;8.90;;
8714;SDS011;4394;51.208;8.904;2023-05-07T11:46:59;8.50;;;7.60;;
8714;SDS011;4394;51.208;8.904;2023-05-07T11:49:48;10.67;;;8.40;;
8714;SDS011;4394;51.208;8.904;2023-05-07T11:52:37;8.20;;;7.43;;
8714;SDS011;4394;51.208;8.904;2023-05-07T11:55:25;8.67;;;7.40;;
8714;SDS011;4394;51.208;8.904;2023-05-07T11:58:20;7.80;;;6.83;;
8714;SDS011;4394;51.208;8.904;2023-05-07T12:01:09;8.07;;;7.27;;
8714;SDS011;4394;51.208;8.904;2023-05-07T12:04:02;6.87;;;6.27;;
8714;SDS011;4394;51.208;8.904;2023-05-07T12:06:53;7.13;;;6.43;;
8714;SDS011;4394;51.208;8.904;2023-05-07T12:09:42;7.23;;;6.50;;
8714;SDS011;4394;51.208;8.904;2023-05-07T12:12:30;6.83;;;6.13;;
8714;SDS011;4394;51.208;8.904;2023-05-07T12:15:25;6.63;;;5.93;;
8714;SDS011;4394;51.208;8.904;2023-05-07T12:18:13;6.80;;;6.20;;
8714;SDS011;4394;51.208;8.904;2023-05-07T12:21:03;7.03;;;6.13;;
8714;SDS011;4394;51.208;8.904;2023-05-07T12:23:52;7.77;;;5.90;;
8714;SDS011;4394;51.208;8.904;2023-05-07T12:26:40;7.10;;;6.13;;
8714;SDS011;4394;51.208;8.904;2023-05-07T12:29:28;6.53;;;5.90;;
8714;SDS011;4394;51.208;8.904;2023-05-07T12:32:17;6.80;;;6.10;;
8714;SDS011;4394;51.208;8.904;2023-05-07T12:35:07;7.20;;;5.87;;
8714;SDS011;4394;51.208;8.904;2023-05-07T12:37:57;6.43;;;5.53;;
8714;SDS011;4394;51.208;8.904;2023-05-07T12:40:50;5.97;;;5.00;;
8714;SDS011;4394;51.208;8.904;2023-05-07T12:43:43;6.40;;;5.80;;
8714;SDS011;4394;51.208;8.904;2023-05-07T12:46:32;6.07;;;5.47;;
8714;SDS011;4394;51.208;8.904;2023-05-07T12:49:25;6.20;;;5.53;;
8714;SDS011;4394;51.208;8.904;2023-05-07T12:52:13;6.57;;;5.50;;
8714;SDS011;4394;51.208;8.904;2023-05-07T12:55:05;6.30;;;5.10;;
8714;SDS011;4394;51.208;8.904;2023-05-07T12:57:55;5.83;;;5.23;;
8714;SDS011;4394;51.208;8.904;2023-05-07T13:00:43;6.77;;;5.27;;
8714;SDS011;4394;51.208;8.904;2023-05-07T13:03:32;6.13;;;5.23;;
8714;SDS011;4394;51.208;8.904;2023-05-07T13:06:22;5.97;;;4.77;;
8714;SDS011;4394;51.208;8.904;2023-05-07T13:09:10;5.50;;;5.00;;
8714;SDS011;4394;51.208;8.904;2023-05-07T13:11:59;5.57;;;4.73;;
8714;SDS011;4394;51.208;8.904;2023-05-07T13:14:47;5.10;;;4.60;;
8714;SDS011;4394;51.208;8.904;2023-05-07T13:17:35;5.60;;;4.70;;
8714;SDS011;4394;51.208;8.904;2023-05-07T13:20:24;5.07;;;4.67;;
8714;SDS011;4394;51.208;8.904;2023-05-07T13:23:12;6.00;;;5.40;;
8714;SDS011;4394;51.208;8.904;2023-05-07T13:26:00;5.77;;;5.17;;
8714;SDS011;4394;51.208;8.904;2023-05-07T13:28:55;5.00;;;4.47;;
8714;SDS011;4394;51.208;8.904;2023-05-07T13:31:43;5.23;;;4.73;;
8714;SDS011;4394;51.208;8.904;2023-05-07T13:34:33;4.40;;;4.00;;
8714;SDS011;4394;51.208;8.904;2023-05-07T13:37:21;5.20;;;4.70;;
8714;SDS011;4394;51.208;8.904;2023-05-07T13:40:09;6.97;;;4.60;;
8714;SDS011;4394;51.208;8.904;2023-05-07T13:42:58;5.17;;;4.67;;
8714;SDS011;4394;51.208;8.904;2023-05-07T13:45:49;5.27;;;4.77;;
8714;SDS011;4394;51.208;8.904;2023-05-07T13:48:38;5.30;;;4.80;;
8714;SDS011;4394;51.208;8.904;2023-05-07T13:51:26;5.00;;;4.50;;
8714;SDS011;4394;51.208;8.904;2023-05-07T13:54:14;5.70;;;4.60;;
8714;SDS011;4394;51.208;8.904;2023-05-07T13:57:02;6.17;;;4.67;;
8714;SDS011;4394;51.208;8.904;2023-05-07T13:59:50;5.73;;;4.63;;
8714;SDS011;4394;51.208;8.904;2023-05-07T14:02:39;5.10;;;4.60;;
8714;SDS011;4394;51.208;8.904;2023-05-07T14:05:28;5.93;;;5.00;;
8714;SDS011;4394;51.208;8.904;2023-05-07T14:08:16;5.80;;;4.70;;
8714;SDS011;4394;51.208;8.904;2023-05-07T14:11:06;5.70;;;5.10;;
8714;SDS011;4394;51.208;8.904;2023-05-07T14:13:54;5.10;;;4.60;;
8714;SDS011;4394;51.208;8.904;2023-05-07T14:16:43;5.47;;;4.97;;
8714;SDS011;4394;51.208;8.904;2023-05-07T14:19:32;5.60;;;5.10;;
8714;SDS011;4394;51.208;8.904;2023-05-07T14:22:21;5.27;;;4.77;;
8714;SDS011;4394;51.208;8.904;2023-05-07T14:25:09;5.87;;;5.27;;
8714;SDS011;4394;51.208;8.904;2023-05-07T14:27:57;5.20;;;4.70;;
8714;SDS011;4394;51.208;8.904;2023-05-07T14:30:45;6.93;;;5.30;;
8714;SDS011;4394;51.208;8.904;2023-05-07T14:33:34;5.30;;;4.80;;
8714;SDS011;4394;51.208;8.904;2023-05-07T14:36:23;7.37;;;5.17;;
8714;SDS011;4394;51.208;8.904;2023-05-07T14:39:12;5.37;;;4.90;;
8714;SDS011;4394;51.208;8.904;2023-05-07T14:42:00;5.17;;;4.67;;
8714;SDS011;4394;51.208;8.904;2023-05-07T14:44:48;6.13;;;5.43;;
8714;SDS011;4394;51.208;8.904;2023-05-07T14:47:36;6.13;;;5.30;;
8714;SDS011;4394;51.208;8.904;2023-05-07T14:50:25;5.83;;;5.30;;
8714;SDS011;4394;51.208;8.904;2023-05-07T14:53:14;5.23;;;4.73;;
8714;SDS011;4394;51.208;8.904;2023-05-07T14:56:02;5.63;;;5.13;;
8714;SDS011;4394;51.208;8.904;2023-05-07T14:58:51;6.03;;;5.43;;
8714;SDS011;4394;51.208;8.904;2023-05-07T15:01:39;6.27;;;5.10;;
8714;SDS011;4394;51.208;8.904;2023-05-07T15:04:31;5.90;;;5.40;;
8714;SDS011;4394;51.208;8.904;2023-05-07T15:07:19;5.53;;;5.03;;
8714;SDS011;4394;51.208;8.904;2023-05-07T15:10:09;6.00;;;5.40;;
8714;SDS011;4394;51.208;8.904;2023-05-07T15:12:57;5.47;;;4.97;;
8714;SDS011;4394;51.208;8.904;2023-05-07T15:15:45;6.37;;;5.70;;
8714;SDS011;4394;51.208;8.904;2023-05-07T15:18:33;6.70;;;5.63;;
8714;SDS011;4394;51.208;8.904;2023-05-07T15:21:21;6.73;;;5.63;;
8714;SDS011;4394;51.208;8.904;2023-05-07T15:24:09;5.90;;;5.40;;
8714;SDS011;4394;51.208;8.904;2023-05-07T15:26:59;6.03;;;5.43;;
8714;SDS011;4394;51.208;8.904;2023-05-07T15:29:47;7.37;;;6.67;;
8714;SDS011;4394;51.208;8.904;2023-05-07T15:32:35;5.70;;;5.10;;
8714;SDS011;4394;51.208;8.904;2023-05-07T15:35:23;7.17;;;5.30;;
8714;SDS011;4394;51.208;8.904;2023-05-07T15:38:12;6.43;;;5.83;;
8714;SDS011;4394;51.208;8.904;2023-05-07T15:41:00;6.00;;;5.40;;
8714;SDS011;4394;51.208;8.904;2023-05-07T15:43:51;6.10;;;5.50;;
8714;SDS011;4394;51.208;8.904;2023-05-07T15:46:39;8.47;;;5.70;;
8714;SDS011;4394;51.208;8.904;2023-05-07T15:49:29;7.70;;;5.67;;
8714;SDS011;4394;51.208;8.904;2023-05-07T15:52:17;6.27;;;5.73;;
8714;SDS011;4394;51.208;8.904;2023-05-07T15:55:07;6.20;;;5.60;;
8714;SDS011;4394;51.208;8.904;2023-05-07T15:57:56;5.77;;;5.23;;
8714;SDS011;4394;51.208;8.904;2023-05-07T16:00:45;6.00;;;5.50;;
8714;SDS011;4394;51.208;8.904;2023-05-07T16:03:33;5.93;;;5.33;;
8714;SDS011;4394;51.208;8.904;2023-05-07T16:06:21;6.10;;;5.50;;
8714;SDS011;4394;51.208;8.904;2023-05-07T16:09:09;6.53;;;5.60;;
8714;SDS011;4394;51.208;8.904;2023-05-07T16:11:58;5.67;;;5.07;;
8714;SDS011;4394;51.208;8.904;2023-05-07T16:14:46;5.37;;;4.87;;
8714;SDS011;4394;51.208;8.904;2023-05-07T16:17:35;5.67;;;5.17;;
8714;SDS011;4394;51.208;8.904;2023-05-07T16:20:25;6.30;;;5.40;;
8714;SDS011;4394;51.208;8.904;2023-05-07T16:23:15;6.37;;;5.77;;
8714;SDS011;4394;51.208;8.904;2023-05-07T16:26:03;6.33;;;5.73;;
8714;SDS011;4394;51.208;8.904;2023-05-07T16:28:51;6.90;;;5.97;;
8714;SDS011;4394;51.208;8.904;2023-05-07T16:31:39;6.83;;;6.00;;
8714;SDS011;4394;51.208;8.904;2023-05-07T16:34:28;6.70;;;6.10;;
8714;SDS011;4394;51.208;8.904;2023-05-07T16:37:18;7.20;;;6.47;;
8714;SDS011;4394;51.208;8.904;2023-05-07T16:40:06;6.47;;;5.80;;
8714;SDS011;4394;51.208;8.904;2023-05-07T16:42:55;8.80;;;6.57;;
8714;SDS011;4394;51.208;8.904;2023-05-07T16:45:43;7.10;;;6.40;;
8714;SDS011;4394;51.208;8.904;2023-05-07T16:51:20;6.60;;;6.00;;
8714;SDS011;4394;51.208;8.904;2023-05-07T16:54:09;6.77;;;6.17;;
8714;SDS011;4394;51.208;8.904;2023-05-07T16:56:58;6.90;;;6.20;;
8714;SDS011;4394;51.208;8.904;2023-05-07T16:59:46;7.40;;;6.17;;
8714;SDS011;4394;51.208;8.904;2023-05-07T17:02:34;7.17;;;6.30;;
8714;SDS011;4394;51.208;8.904;2023-05-07T17:05:22;7.60;;;6.90;;
8714;SDS011;4394;51.208;8.904;2023-05-07T17:08:12;7.27;;;6.53;;
8714;SDS011;4394;51.208;8.904;2023-05-07T17:11:00;7.33;;;6.60;;
8714;SDS011;4394;51.208;8.904;2023-05-07T17:13:48;6.67;;;6.07;;
8714;SDS011;4394;51.208;8.904;2023-05-07T17:16:37;7.10;;;6.40;;